createdAt,value
2018-05-29T00:02:13.993Z,19.30
2018-05-29T00:04:41.457Z,19.30
2018-05-29T00:07:08.912Z,19.30
2018-05-29T00:09:36.353Z,19.30
2018-05-29T00:12:03.789Z,19.20
2018-05-29T00:14:31.220Z,19.20
2018-05-29T00:16:59.431Z,19.20
2018-05-29T00:19:26.862Z,19.10
2018-05-29T00:21:55.088Z,19.10
2018-05-29T00:24:22.530Z,19.10
2018-05-29T00:26:49.978Z,19.10
2018-05-29T00:29:17.405Z,19.10
2018-05-29T00:31:45.610Z,19.10
2018-05-29T00:34:13.036Z,19.10
2018-05-29T00:36:41.253Z,19.00
2018-05-29T00:39:08.701Z,19.00
2018-05-29T00:41:36.160Z,19.00
2018-05-29T00:44:03.590Z,19.00
2018-05-29T00:46:31.847Z,18.90
2018-05-29T00:49:00.092Z,18.90
2018-05-29T00:51:27.539Z,18.80
2018-05-29T00:53:54.986Z,18.80
2018-05-29T00:56:22.422Z,18.80
2018-05-29T00:58:49.870Z,18.80
2018-05-29T01:01:18.053Z,18.70
2018-05-29T01:03:45.502Z,18.70
2018-05-29T01:06:12.935Z,18.70
2018-05-29T01:08:41.140Z,18.60
2018-05-29T01:11:08.581Z,18.60
2018-05-29T01:13:36.816Z,18.50
2018-05-29T01:16:04.249Z,18.50
2018-05-29T01:18:31.692Z,18.50
2018-05-29T01:20:59.124Z,18.50
2018-05-29T01:23:26.574Z,18.50
2018-05-29T01:25:54.776Z,18.40
2018-05-29T01:28:22.218Z,18.40
2018-05-29T01:30:49.653Z,18.40
2018-05-29T01:33:17.862Z,18.30
2018-05-29T01:35:45.296Z,18.20
2018-05-29T01:38:12.748Z,18.20
2018-05-29T01:40:40.962Z,18.20
2018-05-29T01:43:08.391Z,18.20
2018-05-29T01:45:35.830Z,18.20
2018-05-29T01:48:04.050Z,18.20
2018-05-29T01:50:31.531Z,18.20
2018-05-29T01:52:58.988Z,18.20
2018-05-29T01:55:26.451Z,18.10
2018-05-29T01:57:53.881Z,18.10
2018-05-29T02:00:21.325Z,18.10
2018-05-29T02:02:48.766Z,18.10
2018-05-29T02:05:16.197Z,18.10
2018-05-29T02:07:44.397Z,18.00
2018-05-29T02:10:11.860Z,18.00
2018-05-29T02:12:39.321Z,18.00
2018-05-29T02:15:06.794Z,18.00
2018-05-29T02:17:34.249Z,17.90
2018-05-29T02:20:01.685Z,17.90
2018-05-29T02:22:29.125Z,17.90
2018-05-29T02:24:56.551Z,17.90
2018-05-29T02:27:23.987Z,17.80
2018-05-29T02:29:51.427Z,17.80
2018-05-29T02:32:18.884Z,17.80
2018-05-29T02:34:46.349Z,17.80
2018-05-29T02:37:13.819Z,17.90
2018-05-29T02:39:41.261Z,17.90
2018-05-29T02:42:08.713Z,18.00
2018-05-29T02:44:36.148Z,18.10
2018-05-29T02:47:03.581Z,18.10
2018-05-29T02:49:31.097Z,18.10
2018-05-29T02:51:58.557Z,18.20
2018-05-29T02:54:26.006Z,18.20
2018-05-29T02:56:53.452Z,18.20
2018-05-29T02:59:20.909Z,18.20
2018-05-29T03:01:48.359Z,18.30
2018-05-29T03:04:15.800Z,18.30
2018-05-29T03:06:43.233Z,18.30
2018-05-29T03:09:11.440Z,18.40
2018-05-29T03:11:38.868Z,18.30
2018-05-29T03:14:07.101Z,18.40
2018-05-29T03:16:34.524Z,18.40
2018-05-29T03:19:01.981Z,18.40
2018-05-29T03:21:29.409Z,18.40
2018-05-29T03:23:57.636Z,18.40
2018-05-29T03:26:25.106Z,18.40
2018-05-29T03:28:52.524Z,18.40
2018-05-29T03:31:19.981Z,18.40
2018-05-29T03:33:47.417Z,18.40
2018-05-29T03:36:14.858Z,18.40
2018-05-29T03:38:43.060Z,18.40
2018-05-29T03:41:10.500Z,18.40
2018-05-29T03:43:37.936Z,18.40
2018-05-29T03:46:06.196Z,18.40
2018-05-29T03:48:33.657Z,18.30
2018-05-29T03:51:01.116Z,18.30
2018-05-29T03:53:28.550Z,18.30
2018-05-29T03:55:55.985Z,18.30
2018-05-29T03:58:23.463Z,18.30
2018-05-29T04:00:50.923Z,18.30
2018-05-29T04:03:18.346Z,18.30
2018-05-29T04:05:45.784Z,18.30
2018-05-29T04:08:13.263Z,18.30
2018-05-29T04:10:41.464Z,18.30
2018-05-29T04:13:08.920Z,18.30
2018-05-29T04:15:36.359Z,18.30
2018-05-29T04:18:03.796Z,18.30
2018-05-29T04:20:31.235Z,18.30
2018-05-29T04:22:58.685Z,18.30
2018-05-29T04:25:26.923Z,18.40
2018-05-29T04:27:54.377Z,18.40
2018-05-29T04:30:21.812Z,18.40
2018-05-29T04:32:49.258Z,18.50
2018-05-29T04:35:16.692Z,18.50
2018-05-29T04:37:44.136Z,18.50
2018-05-29T04:40:12.342Z,18.60
2018-05-29T04:42:39.781Z,18.60
2018-05-29T04:45:07.225Z,18.70
2018-05-29T04:47:35.426Z,18.80
2018-05-29T04:50:02.920Z,18.80
2018-05-29T04:52:30.348Z,18.90
2018-05-29T04:54:57.788Z,19.00
2018-05-29T04:57:25.232Z,19.00
2018-05-29T04:59:53.442Z,19.20
2018-05-29T05:02:20.878Z,19.20
2018-05-29T05:04:48.373Z,19.20
2018-05-29T05:07:15.814Z,19.30
2018-05-29T05:09:43.255Z,19.40
2018-05-29T05:12:10.701Z,19.50
2018-05-29T05:14:38.151Z,19.60
2018-05-29T05:17:05.591Z,19.60
2018-05-29T05:19:33.804Z,19.80
2018-05-29T05:22:01.243Z,19.80
2018-05-29T05:24:28.693Z,19.90
2018-05-29T05:26:56.150Z,19.90
2018-05-29T05:29:24.360Z,20.10
2018-05-29T05:31:51.834Z,20.10
2018-05-29T05:34:19.289Z,20.10
2018-05-29T05:36:46.728Z,20.20
2018-05-29T05:39:14.159Z,20.20
2018-05-29T05:41:41.606Z,20.20
2018-05-29T05:44:09.045Z,20.30
2018-05-29T05:46:37.260Z,20.40
2018-05-29T05:49:04.708Z,20.30
2018-05-29T05:51:32.171Z,20.40
2018-05-29T05:53:59.733Z,20.40
2018-05-29T05:56:27.179Z,20.50
2018-05-29T05:58:54.607Z,20.50
2018-05-29T06:01:22.826Z,20.60
2018-05-29T06:03:50.271Z,20.60
2018-05-29T06:06:17.715Z,20.70
2018-05-29T06:08:45.164Z,20.70
2018-05-29T06:11:12.630Z,20.80
2018-05-29T06:13:40.105Z,20.80
2018-05-29T06:16:08.333Z,21.00
2018-05-29T06:18:36.546Z,21.00
2018-05-29T06:21:04.002Z,21.00
2018-05-29T06:23:31.436Z,21.10
2018-05-29T06:25:59.680Z,21.20
2018-05-29T06:28:27.187Z,21.20
2018-05-29T06:30:54.637Z,21.30
2018-05-29T06:33:22.074Z,21.40
2018-05-29T06:35:50.312Z,21.50
2018-05-29T06:38:17.796Z,21.50
2018-05-29T06:40:45.953Z,21.70
2018-05-29T06:43:13.416Z,21.60
2018-05-29T06:45:40.905Z,21.70
2018-05-29T06:48:08.387Z,21.80
2018-05-29T06:50:35.824Z,21.90
2018-05-29T06:53:03.274Z,21.90
2018-05-29T06:55:30.764Z,22.00
2018-05-29T06:57:58.206Z,22.00
2018-05-29T07:00:25.645Z,22.00
2018-05-29T07:02:53.859Z,22.10
2018-05-29T07:05:21.318Z,22.10
2018-05-29T07:07:48.774Z,22.20
2018-05-29T07:10:16.224Z,22.30
2018-05-29T07:12:43.677Z,22.30
2018-05-29T07:15:11.126Z,22.30
2018-05-29T07:17:38.568Z,22.40
2018-05-29T07:20:06.028Z,22.40
2018-05-29T07:22:33.478Z,22.40
2018-05-29T07:25:01.676Z,22.60
2018-05-29T07:27:29.136Z,22.60
2018-05-29T07:29:56.572Z,22.70
2018-05-29T07:32:24.017Z,22.70
2018-05-29T07:34:52.225Z,22.70
2018-05-29T07:37:19.658Z,22.70
2018-05-29T07:39:47.147Z,22.70
2018-05-29T07:42:15.342Z,22.70
2018-05-29T07:44:42.777Z,22.70
2018-05-29T07:47:10.256Z,22.70
2018-05-29T07:49:37.825Z,22.70
2018-05-29T07:52:05.382Z,22.80
2018-05-29T07:54:32.890Z,22.80
2018-05-29T07:57:00.361Z,22.80
2018-05-29T07:59:27.796Z,22.90
2018-05-29T08:01:55.344Z,22.90
2018-05-29T08:04:23.708Z,23.10
2018-05-29T08:06:51.272Z,23.10
2018-05-29T08:09:18.913Z,23.20
2018-05-29T08:11:46.586Z,23.30
2018-05-29T08:14:14.125Z,23.40
2018-05-29T08:16:41.683Z,23.40
2018-05-29T08:19:09.454Z,23.40
2018-05-29T08:21:37.705Z,23.50
2018-05-29T08:24:05.289Z,23.50
2018-05-29T08:26:33.608Z,23.60
2018-05-29T08:29:01.059Z,23.60
2018-05-29T08:31:29.297Z,23.70
2018-05-29T08:33:56.774Z,23.70
2018-05-29T08:36:24.256Z,23.80
2018-05-29T08:38:51.846Z,23.90
2018-05-29T08:41:19.284Z,24.00
2018-05-29T08:43:46.730Z,24.00
2018-05-29T08:46:14.177Z,24.10
2018-05-29T08:48:42.389Z,24.20
2018-05-29T08:51:09.833Z,24.20
2018-05-29T08:53:37.282Z,24.20
2018-05-29T08:56:04.758Z,24.30
2018-05-29T08:58:32.176Z,24.40
2018-05-29T09:01:00.437Z,24.50
2018-05-29T09:03:28.761Z,24.60
2018-05-29T09:05:56.201Z,24.60
2018-05-29T09:08:23.649Z,24.60
2018-05-29T09:10:51.096Z,24.70
2018-05-29T09:13:19.301Z,24.80
2018-05-29T09:15:46.738Z,24.80
2018-05-29T09:18:14.185Z,24.90
2018-05-29T09:20:42.390Z,25.00
2018-05-29T09:23:10.616Z,25.10
2018-05-29T09:25:38.041Z,25.10
2018-05-29T09:28:05.495Z,25.10
2018-05-29T09:30:33.382Z,25.10
2018-05-29T09:33:01.598Z,25.10
2018-05-29T09:35:29.918Z,25.00
2018-05-29T09:37:58.089Z,25.00
2018-05-29T09:40:25.628Z,25.00
2018-05-29T09:42:53.222Z,25.00
2018-05-29T09:45:20.660Z,25.00
2018-05-29T09:47:48.106Z,25.10
2018-05-29T09:50:15.553Z,25.10
2018-05-29T09:52:42.990Z,25.20
2018-05-29T09:55:11.211Z,25.40
2018-05-29T09:57:38.654Z,25.40
2018-05-29T10:00:06.101Z,25.40
2018-05-29T10:02:33.540Z,25.50
2018-05-29T10:05:01.926Z,25.60
2018-05-29T10:07:29.444Z,25.60
2018-05-29T10:09:56.914Z,25.60
2018-05-29T10:12:24.413Z,25.70
2018-05-29T10:14:51.867Z,25.60
2018-05-29T10:17:19.309Z,25.60
2018-05-29T10:19:46.757Z,25.60
2018-05-29T10:22:14.959Z,25.50
2018-05-29T10:24:42.421Z,25.50
2018-05-29T10:27:10.175Z,25.60
2018-05-29T10:29:38.266Z,25.60
2018-05-29T10:32:05.702Z,25.70
2018-05-29T10:34:33.153Z,25.90
2018-05-29T10:37:00.589Z,26.00
2018-05-29T10:39:28.935Z,26.10
2018-05-29T10:41:56.380Z,26.10
2018-05-29T10:44:23.840Z,26.10
2018-05-29T10:46:51.593Z,26.10
2018-05-29T10:49:19.371Z,26.10
2018-05-29T10:51:46.816Z,26.10
2018-05-29T10:54:14.260Z,26.00
2018-05-29T10:56:41.701Z,25.90
2018-05-29T10:59:09.316Z,25.90
2018-05-29T11:01:36.847Z,25.90
2018-05-29T11:04:04.475Z,25.90
2018-05-29T11:06:31.986Z,26.00
2018-05-29T11:08:59.417Z,26.00
2018-05-29T11:11:26.863Z,26.00
2018-05-29T11:13:54.305Z,26.00
2018-05-29T11:16:21.754Z,26.00
2018-05-29T11:18:49.957Z,26.00
2018-05-29T11:21:17.400Z,26.00
2018-05-29T11:23:44.854Z,26.00
2018-05-29T11:26:12.297Z,26.00
2018-05-29T11:28:40.501Z,26.10
2018-05-29T11:31:07.966Z,26.10
2018-05-29T11:33:35.400Z,26.10
2018-05-29T11:36:02.851Z,26.00
2018-05-29T11:38:31.052Z,25.90
2018-05-29T11:40:58.504Z,25.80
2018-05-29T11:43:25.965Z,25.70
2018-05-29T11:45:53.390Z,25.60
2018-05-29T11:48:21.594Z,25.20
2018-05-29T11:50:49.042Z,25.20
2018-05-29T11:53:16.510Z,25.00
2018-05-29T11:55:44.002Z,24.90
2018-05-29T11:58:11.462Z,24.80
2018-05-29T12:00:38.939Z,24.70
2018-05-29T12:03:06.349Z,24.30
2018-05-29T12:05:33.887Z,24.50
2018-05-29T12:08:01.320Z,24.40
2018-05-29T12:10:29.539Z,24.20
2018-05-29T12:12:57.742Z,24.10
2018-05-29T12:15:25.191Z,24.10
2018-05-29T12:17:52.631Z,24.00
2018-05-29T12:20:20.200Z,24.00
2018-05-29T12:22:47.859Z,23.90
2018-05-29T12:25:15.340Z,23.90
2018-05-29T12:27:42.987Z,23.80
2018-05-29T12:30:10.599Z,23.80
2018-05-29T12:32:38.034Z,23.40
2018-05-29T12:35:05.536Z,23.00
2018-05-29T12:37:33.741Z,22.10
2018-05-29T12:40:01.225Z,22.00
2018-05-29T12:42:29.452Z,21.50
2018-05-29T12:44:56.995Z,21.50
2018-05-29T12:47:24.528Z,21.40
2018-05-29T12:49:51.993Z,21.20
2018-05-29T12:52:19.468Z,21.10
2018-05-29T12:54:47.800Z,20.80
2018-05-29T12:57:16.218Z,20.50
2018-05-29T12:59:43.832Z,20.60
2018-05-29T13:02:11.273Z,20.40
2018-05-29T13:04:38.769Z,20.20
2018-05-29T13:07:07.085Z,19.80
2018-05-29T13:09:34.576Z,19.80
2018-05-29T13:12:02.138Z,19.70
2018-05-29T13:14:29.671Z,19.60
2018-05-29T13:16:57.302Z,19.50
2018-05-29T13:19:24.839Z,19.50
2018-05-29T13:21:53.045Z,19.30
2018-05-29T13:24:20.474Z,19.30
2018-05-29T13:26:47.909Z,19.30
2018-05-29T13:29:16.142Z,19.30
2018-05-29T13:31:43.581Z,19.20
2018-05-29T13:34:11.828Z,19.20
2018-05-29T13:36:40.042Z,19.20
2018-05-29T13:39:07.513Z,19.20
2018-05-29T13:41:34.922Z,19.20
2018-05-29T13:44:02.358Z,19.20
2018-05-29T13:46:29.824Z,19.20
2018-05-29T13:48:58.027Z,19.30
2018-05-29T13:51:25.491Z,19.30
2018-05-29T13:53:52.945Z,19.40
2018-05-29T13:56:20.373Z,19.40
2018-05-29T13:58:48.618Z,19.50
2018-05-29T14:01:16.053Z,19.40
2018-05-29T14:03:43.507Z,19.50
2018-05-29T14:06:10.970Z,19.50
2018-05-29T14:08:38.412Z,19.50
2018-05-29T14:11:05.858Z,19.50
2018-05-29T14:13:33.303Z,19.60
2018-05-29T14:16:01.005Z,19.60
2018-05-29T14:18:29.213Z,19.60
2018-05-29T14:20:57.425Z,19.60
2018-05-29T14:23:24.862Z,19.60
2018-05-29T14:25:52.403Z,19.60
2018-05-29T14:28:20.638Z,19.60
2018-05-29T14:30:48.090Z,19.60
2018-05-29T14:33:15.532Z,19.70
2018-05-29T14:35:43.004Z,19.70
2018-05-29T14:38:10.450Z,19.70
2018-05-29T14:40:37.920Z,19.70
2018-05-29T14:43:05.388Z,19.70
2018-05-29T14:45:32.824Z,19.70
2018-05-29T14:48:00.267Z,19.70
2018-05-29T14:50:27.722Z,19.70
2018-05-29T14:52:55.175Z,19.70
2018-05-29T14:55:22.617Z,19.70
2018-05-29T14:57:50.073Z,19.70
2018-05-29T15:00:17.513Z,19.70
2018-05-29T15:02:45.723Z,19.80
2018-05-29T15:05:13.927Z,19.80
2018-05-29T15:07:41.380Z,19.80
2018-05-29T15:10:09.581Z,19.80
2018-05-29T15:12:37.801Z,19.80
2018-05-29T15:15:05.234Z,19.80
2018-05-29T15:17:32.660Z,19.80
2018-05-29T15:20:01.624Z,19.80
2018-05-29T15:22:29.061Z,19.80
2018-05-29T15:24:56.558Z,19.90
2018-05-29T15:27:24.179Z,19.90
2018-05-29T15:29:52.447Z,20.00
2018-05-29T15:32:19.884Z,19.90
2018-05-29T15:34:48.094Z,20.10
2018-05-29T15:37:19.332Z,20.10
2018-05-29T15:39:46.828Z,20.10
2018-05-29T15:42:14.261Z,20.20
2018-05-29T15:44:41.726Z,20.20
2018-05-29T15:47:09.176Z,20.30
2018-05-29T15:49:38.792Z,20.30
2018-05-29T15:52:07.282Z,20.40
2018-05-29T15:54:34.709Z,20.40
2018-05-29T15:57:02.912Z,20.50
2018-05-29T15:59:30.348Z,20.50
2018-05-29T16:01:57.792Z,20.50
2018-05-29T16:04:25.252Z,20.50
2018-05-29T16:06:52.689Z,20.50
2018-05-29T16:09:20.919Z,20.50
2018-05-29T16:11:48.359Z,20.40
2018-05-29T16:14:15.868Z,20.50
2018-05-29T16:16:43.270Z,20.50
2018-05-29T16:19:10.727Z,20.50
2018-05-29T16:21:38.185Z,20.50
2018-05-29T16:24:05.635Z,20.60
2018-05-29T16:26:34.496Z,20.60
2018-05-29T16:29:02.065Z,20.60
2018-05-29T16:31:29.501Z,20.60
2018-05-29T16:33:57.710Z,20.60
2018-05-29T16:36:25.881Z,20.50
2018-05-29T16:38:53.472Z,20.50
2018-05-29T16:41:20.901Z,20.50
2018-05-29T16:43:48.651Z,20.50
2018-05-29T16:46:16.128Z,20.50
2018-05-29T16:48:44.786Z,20.40
2018-05-29T16:51:12.262Z,20.40
2018-05-29T16:53:39.692Z,20.40
2018-05-29T16:56:07.546Z,20.40
2018-05-29T16:58:35.117Z,20.40
2018-05-29T17:01:02.575Z,20.30
2018-05-29T17:03:30.781Z,20.30
2018-05-29T17:05:58.233Z,20.30
2018-05-29T17:08:25.841Z,20.30
2018-05-29T17:10:54.049Z,20.30
2018-05-29T17:13:21.480Z,20.30
2018-05-29T17:15:49.701Z,20.70
2018-05-29T17:18:17.134Z,20.70
2018-05-29T17:20:44.578Z,20.90
2018-05-29T17:23:12.018Z,20.90
2018-05-29T17:25:40.245Z,20.90
2018-05-29T17:28:07.681Z,20.90
2018-05-29T17:30:35.127Z,20.90
2018-05-29T17:33:02.569Z,20.90
2018-05-29T17:35:30.884Z,21.50
2018-05-29T17:37:58.549Z,21.50
2018-05-29T17:40:27.098Z,22.00
2018-05-29T17:42:54.635Z,21.90
2018-05-29T17:45:22.880Z,22.10
2018-05-29T17:47:50.356Z,21.90
2018-05-29T17:50:19.252Z,21.70
2018-05-29T17:52:47.658Z,21.60
2018-05-29T17:55:15.243Z,21.60
2018-05-29T17:57:42.743Z,21.50
2018-05-29T18:00:10.990Z,21.30
2018-05-29T18:02:38.653Z,21.20
2018-05-29T18:05:06.297Z,21.10
2018-05-29T18:07:33.786Z,21.00
2018-05-29T18:10:01.521Z,20.90
2018-05-29T18:12:29.265Z,20.80
2018-05-29T18:14:56.741Z,20.80
2018-05-29T18:17:24.257Z,20.70
2018-05-29T18:19:52.670Z,20.50
2018-05-29T18:22:20.154Z,20.50
2018-05-29T18:24:47.632Z,20.40
2018-05-29T18:27:15.081Z,20.30
2018-05-29T18:29:42.509Z,20.20
2018-05-29T18:32:10.716Z,20.00
2018-05-29T18:34:38.156Z,20.00
2018-05-29T18:37:05.598Z,20.00
2018-05-29T18:39:33.040Z,19.90
2018-05-29T18:42:00.486Z,19.80
2018-05-29T18:44:27.930Z,19.80
2018-05-29T18:46:55.369Z,19.70
2018-05-29T18:49:23.575Z,19.70
2018-05-29T18:51:51.021Z,19.60
2018-05-29T18:54:18.465Z,19.60
2018-05-29T18:56:46.675Z,19.50
2018-05-29T18:59:14.100Z,19.50
2018-05-29T19:01:42.308Z,19.40
2018-05-29T19:04:09.789Z,19.50
2018-05-29T19:06:37.231Z,19.40
2018-05-29T19:09:05.544Z,19.40
2018-05-29T19:11:33.167Z,19.40
2018-05-29T19:14:01.463Z,19.30
2018-05-29T19:16:29.136Z,19.30
2018-05-29T19:18:56.685Z,19.30
2018-05-29T19:21:24.950Z,19.30
2018-05-29T19:23:52.393Z,19.30
2018-05-29T19:26:19.840Z,19.30
2018-05-29T19:28:47.375Z,19.20
2018-05-29T19:31:14.813Z,19.30
2018-05-29T19:33:43.007Z,19.20
2018-05-29T19:36:10.436Z,19.20
2018-05-29T19:38:38.646Z,19.20
2018-05-29T19:41:06.085Z,19.20
2018-05-29T19:43:34.317Z,19.10
2018-05-29T19:46:01.752Z,19.50
2018-05-29T19:48:29.197Z,19.10
2018-05-29T19:50:56.760Z,19.10
2018-05-29T19:53:24.434Z,19.00
2018-05-29T19:55:51.894Z,19.00
2018-05-29T19:58:19.340Z,19.00
2018-05-29T20:00:46.915Z,19.00
2018-05-29T20:03:14.373Z,19.00
2018-05-29T20:05:41.811Z,18.90
2018-05-29T20:08:09.311Z,18.90
2018-05-29T20:10:36.806Z,18.90
2018-05-29T20:13:04.196Z,18.90
2018-05-29T20:15:31.633Z,18.90
2018-05-29T20:17:59.109Z,18.80
2018-05-29T20:20:26.544Z,18.80
2018-05-29T20:22:53.990Z,18.80
2018-05-29T20:25:21.429Z,18.80
2018-05-29T20:27:49.640Z,18.70
2018-05-29T20:30:17.082Z,18.60
2018-05-29T20:32:44.559Z,18.60
2018-05-29T20:35:11.998Z,18.60
2018-05-29T20:37:39.436Z,18.60
2018-05-29T20:40:06.879Z,18.50
2018-05-29T20:42:35.096Z,18.50
2018-05-29T20:45:02.542Z,18.50
2018-05-29T20:47:29.976Z,18.50
2018-05-29T20:49:57.424Z,18.50
2018-05-29T20:52:25.626Z,18.50
2018-05-29T20:57:19.786Z,18.50
2018-05-29T20:59:47.999Z,18.50
2018-05-29T21:02:15.495Z,18.50
2018-05-29T21:04:42.881Z,18.50
2018-05-29T21:07:11.084Z,18.50
2018-05-29T21:09:38.541Z,18.40
2018-05-29T21:12:06.003Z,18.50
2018-05-29T21:14:33.453Z,18.40
2018-05-29T21:17:00.880Z,18.40
2018-05-29T21:19:29.105Z,18.40
2018-05-29T21:21:56.597Z,18.40
2018-05-29T21:24:24.923Z,18.40
2018-05-29T21:26:52.358Z,18.30
2018-05-29T21:29:19.861Z,18.40
2018-05-29T21:31:48.096Z,18.30
2018-05-29T21:34:15.542Z,18.30
2018-05-29T21:36:43.764Z,18.30
2018-05-29T21:39:11.234Z,18.30
2018-05-29T21:41:38.672Z,18.30
2018-05-29T21:44:06.189Z,18.30
2018-05-29T21:46:33.652Z,18.30
2018-05-29T21:49:01.838Z,18.30
2018-05-29T21:51:29.281Z,18.30
2018-05-29T21:53:56.714Z,18.30
2018-05-29T21:56:24.917Z,18.30
2018-05-29T21:58:53.125Z,18.30
2018-05-29T22:01:20.609Z,18.20
2018-05-29T22:03:48.054Z,18.30
2018-05-29T22:06:15.527Z,18.20
2018-05-29T22:08:42.988Z,18.20
2018-05-29T22:11:10.505Z,18.20
2018-05-29T22:13:37.941Z,18.20
2018-05-29T22:16:05.368Z,18.20
2018-05-29T22:18:33.585Z,18.20
2018-05-29T22:21:01.076Z,18.20
2018-05-29T22:23:28.482Z,18.20
2018-05-29T22:25:55.917Z,18.20
2018-05-29T22:28:24.113Z,18.10
2018-05-29T22:30:51.558Z,18.10
2018-05-29T22:33:18.993Z,18.10
2018-05-29T22:35:47.200Z,18.10
2018-05-29T22:38:14.656Z,18.10
2018-05-29T22:40:42.097Z,18.10
2018-05-29T22:43:09.542Z,18.10
2018-05-29T22:45:37.880Z,18.00
2018-05-29T22:48:05.406Z,18.10
2018-05-29T22:50:32.883Z,18.00
2018-05-29T22:53:00.313Z,18.10
2018-05-29T22:55:27.762Z,18.10
2018-05-29T22:57:55.202Z,18.00
2018-05-29T23:00:23.411Z,18.10
2018-05-29T23:02:52.046Z,18.00
2018-05-29T23:05:20.357Z,18.00
2018-05-29T23:07:47.809Z,18.00
2018-05-29T23:10:16.014Z,18.00
2018-05-29T23:12:43.526Z,18.00
2018-05-29T23:15:11.726Z,18.00
2018-05-29T23:17:39.169Z,18.00
2018-05-29T23:20:06.601Z,18.00
2018-05-29T23:22:34.813Z,18.00
2018-05-29T23:25:02.282Z,17.90
2018-05-29T23:27:29.728Z,17.90
2018-05-29T23:29:57.170Z,17.90
2018-05-29T23:32:24.616Z,17.90
2018-05-29T23:34:52.854Z,17.80
2018-05-29T23:37:21.089Z,17.80
2018-05-29T23:39:48.521Z,17.80
2018-05-29T23:42:16.734Z,17.80
2018-05-29T23:44:44.212Z,17.80
2018-05-29T23:47:11.697Z,17.70
2018-05-29T23:49:39.277Z,17.70
2018-05-29T23:52:06.738Z,17.70
2018-05-29T23:54:34.177Z,17.60
2018-05-29T23:57:02.386Z,17.60
2018-05-29T23:59:29.837Z,17.50
